»·PEaware :: N50212 KSNA-KSBA

N50212 :: KSNA-KSBA

FLIGHT INFORMATION

Flight Status: Arrived
Operator: Privately registered:
United States
More flights under this callsign
Pilot: Brad H. (9994)
Aircraft: PIPER PA-34 SENECA
(PA34)
More flights by this aircraft type
Origin: KSNA John Wayne-Orange Co
United States
Destination: KSBA Santa Barbara Mun
United States
More flights between these airports :: More routes between these airports
Route: +SLI V23 LAX V299 VTU KWANG
File this flight plan on PilotEdge
Remarks: ILS 7 APP if able
Altitude:
(Current/Filed)
11,000ft
Speed:
(Current/Filed)
140kts
Departed: 05-Jan-18 08:16 AM
Arrived: 05-Jan-18 09:21 AM
Distance/Time
Traveled:
108nm/1:05
Distance/Time
To Go:
Arrived

Flight Plot

Page will automatically refresh every two minutes.


Map Options




Map Legend


Flown Route
Filed Route
Departure Airport
Arrival Airport
Navaid (VOR, NDB)
Fix

Horizontal Profiles

Position Reports

Time Latitude Longitude Heading Altitude Ground
Speed
05-Jan-18 08:06 33.672492 -117.866886 210 47ft 0kts
05-Jan-18 08:07 33.672492 -117.866886 210 47ft 0kts
05-Jan-18 08:08 33.672492 -117.866886 210 47ft 0kts
05-Jan-18 08:09 33.672492 -117.866886 210 47ft 0kts
05-Jan-18 08:10 33.672492 -117.866886 210 47ft 0kts
05-Jan-18 08:11 33.672492 -117.866886 210 47ft 0kts
05-Jan-18 08:12 33.672492 -117.866886 210 47ft 0kts
05-Jan-18 08:13 33.672492 -117.866886 210 47ft 0kts
05-Jan-18 08:14 33.672492 -117.866886 210 47ft 0kts
05-Jan-18 08:15 33.672465 -117.866921 239 48ft 1kts
05-Jan-18 08:16 33.672535 -117.867126 311 48ft 0kts
05-Jan-18 08:17 33.674121 -117.867079 23 46ft 8kts
05-Jan-18 08:18 33.676662 -117.865472 26 43ft 19kts
05-Jan-18 08:19 33.679891 -117.863613 320 39ft 0kts
05-Jan-18 08:20 33.679891 -117.863613 320 39ft 0kts
05-Jan-18 08:21 33.679896 -117.863618 320 39ft 0kts
05-Jan-18 08:22 33.674212 -117.867943 208 92ft 98kts
05-Jan-18 08:23 33.652498 -117.894068 236 1450ft 120kts
05-Jan-18 08:24 33.633489 -117.923014 231 2412ft 118kts
05-Jan-18 08:25 33.612693 -117.954548 231 3253ft 119kts
05-Jan-18 08:26 33.597890 -117.986909 293 4232ft 112kts
05-Jan-18 08:27 33.617922 -118.013932 315 5223ft 108kts
05-Jan-18 08:28 33.638904 -118.039806 314 5970ft 119kts
05-Jan-18 08:29 33.664365 -118.073282 312 5950ft 144kts
05-Jan-18 08:30 33.691922 -118.109857 311 5941ft 149kts
05-Jan-18 08:31 33.719620 -118.146683 311 5956ft 149kts
05-Jan-18 08:32 33.746645 -118.182652 311 5956ft 149kts
05-Jan-18 08:33 33.774464 -118.219718 311 5956ft 149kts
05-Jan-18 08:34 33.802406 -118.256984 311 5956ft 150kts
05-Jan-18 08:35 33.830161 -118.294041 311 5956ft 149kts
05-Jan-18 08:36 33.858081 -118.331346 311 5956ft 149kts
05-Jan-18 08:37 33.885844 -118.368492 311 5956ft 149kts
05-Jan-18 08:38 33.913718 -118.405833 311 5956ft 149kts
05-Jan-18 08:39 33.937327 -118.446106 289 5960ft 149kts
05-Jan-18 08:40 33.951351 -118.493210 289 5953ft 146kts
05-Jan-18 08:41 33.964666 -118.538032 289 5955ft 140kts
05-Jan-18 08:42 33.977681 -118.581914 289 5956ft 138kts
05-Jan-18 08:43 33.990581 -118.625472 289 5956ft 138kts
05-Jan-18 08:44 34.003452 -118.668998 289 5956ft 137kts
05-Jan-18 08:45 34.016282 -118.712451 289 5956ft 137kts
05-Jan-18 08:46 34.025452 -118.744113 290 5978ft 135kts
05-Jan-18 08:47 34.037353 -118.785816 291 5989ft 131kts
05-Jan-18 08:48 34.049521 -118.827303 291 5990ft 131kts
05-Jan-18 08:49 34.061689 -118.868721 291 5991ft 130kts
05-Jan-18 08:50 34.073784 -118.909939 291 5992ft 130kts
05-Jan-18 08:51 34.085951 -118.951448 291 5973ft 131kts
05-Jan-18 08:52 34.098070 -118.992866 291 5973ft 130kts
05-Jan-18 08:53 34.110088 -119.033991 291 5972ft 130kts
05-Jan-18 08:54 34.124731 -119.073654 298 5972ft 129kts
05-Jan-18 08:55 34.140300 -119.110854 298 5975ft 129kts
05-Jan-18 08:56 34.156485 -119.149619 298 5976ft 129kts
05-Jan-18 08:57 34.172669 -119.188422 298 5978ft 129kts
05-Jan-18 08:58 34.188802 -119.227152 299 5980ft 129kts
05-Jan-18 08:59 34.204926 -119.265907 299 5982ft 129kts
05-Jan-18 09:00 34.221078 -119.304720 299 5983ft 129kts
05-Jan-18 09:01 34.237228 -119.343442 299 5983ft 129kts
05-Jan-18 09:02 34.253445 -119.382330 299 5982ft 129kts
05-Jan-18 09:03 34.269585 -119.421030 299 5981ft 129kts
05-Jan-18 09:04 34.285770 -119.459838 299 5979ft 129kts
05-Jan-18 09:05 34.301928 -119.498588 299 5977ft 129kts
05-Jan-18 09:06 34.308159 -119.540889 272 5975ft 132kts
05-Jan-18 09:07 34.307311 -119.585206 272 5972ft 132kts
05-Jan-18 09:08 34.306648 -119.631838 272 5623ft 149kts
05-Jan-18 09:09 34.306373 -119.683612 272 5031ft 156kts
05-Jan-18 09:10 34.306445 -119.736635 272 4429ft 158kts
05-Jan-18 09:11 34.306881 -119.789903 272 3836ft 158kts
05-Jan-18 09:12 34.307318 -119.839528 272 3978ft 145kts
05-Jan-18 09:13 34.307673 -119.887036 272 3978ft 139kts
05-Jan-18 09:14 34.308004 -119.933534 272 3979ft 138kts
05-Jan-18 09:15 34.308336 -119.979977 272 3979ft 137kts
05-Jan-18 09:16 34.308630 -120.026177 272 3982ft 137kts
05-Jan-18 09:17 34.320036 -120.064213 351 3994ft 131kts
05-Jan-18 09:18 34.357561 -120.070561 352 3622ft 139kts
05-Jan-18 09:19 34.396029 -120.078395 351 3121ft 141kts
05-Jan-18 09:20 34.430140 -120.057479 62 2601ft 143kts
05-Jan-18 09:21 34.423953 -120.017224 91 2539ft 107kts
05-Jan-18 09:22 34.424762 -119.977059 88 2025ft 112kts
05-Jan-18 09:23 34.425570 -119.941306 88 1447ft 101kts
05-Jan-18 09:24 34.426376 -119.905274 88 871ft 110kts
05-Jan-18 09:25 34.427160 -119.869800 88 298ft 102kts
05-Jan-18 09:26 34.427715 -119.843495 89 9ft 42kts
05-Jan-18 09:27 34.426858 -119.841468 160 9ft 0kts
05-Jan-18 09:28 34.426689 -119.838623 90 9ft 0kts
05-Jan-18 09:29 34.424137 -119.837551 164 9ft 15kts
05-Jan-18 09:30 34.420089 -119.836000 14 13ft 12kts
05-Jan-18 09:31 34.420294 -119.836021 339 13ft 0kts
05-Jan-18 09:32 34.420294 -119.836021 339 13ft 0kts
05-Jan-18 09:33 34.420294 -119.836021 339 13ft 0kts
05-Jan-18 09:34 34.420294 -119.836021 339 13ft 0kts
05-Jan-18 09:35 34.420294 -119.836021 339 13ft 0kts
05-Jan-18 09:36 34.420294 -119.836021 339 13ft 0kts
05-Jan-18 09:37 34.420294 -119.836021 339 13ft 0kts
05-Jan-18 09:38 34.420294 -119.836021 339 13ft 0kts
05-Jan-18 09:39 34.420294 -119.836021 339 13ft 0kts
05-Jan-18 09:40 34.420294 -119.836021 339 13ft 0kts
05-Jan-18 09:41 34.420294 -119.836021 339 13ft 0kts
05-Jan-18 09:42 34.420294 -119.836021 339 13ft 0kts

Navigation Log

Ident Type
1. KSNA Airport
2. SLI Navaid
3. POPPR Fix
4. HERMO Fix
5. LAX Navaid
6. SADDE Fix
7. VTU Navaid
8. KWANG Fix
9. KSBA Airport